Time;durP1;ratioP1;P1;durP2;ratioP2;P2;SDS_P1;SDS_P2;PMS_P1;PMS_P2;Temp;Humidity;BMP_temperature;BMP_pressure;BME280_temperature;BME280_humidity;BME280_pressure;Samples;Min_cycle;Max_cycle;Signal;HPM_P1;HPM_P2
2024/02/22 00:01:37;;;;;;;8.27;2.28;;;;;;;;;;5079105;28;20797;-59
2024/02/22 00:04:03;;;;;;;5.00;1.63;;;;;;;;;;5079533;28;20110;-58
2024/02/22 00:06:29;;;;;;;6.40;1.70;;;;;;;;;;5093067;28;20074;-58
2024/02/22 00:08:55;;;;;;;7.28;1.95;;;;;;;;;;5082343;28;20027;-58
2024/02/22 00:11:21;;;;;;;5.00;1.45;;;;;;;;;;5083958;28;20020;-58
2024/02/22 00:13:47;;;;;;;5.53;1.70;;;;;;;;;;5082230;28;20024;-58
2024/02/22 00:16:15;;;;;;;7.32;1.95;;;;;;;;;;5068781;28;20115;-58
2024/02/22 00:18:41;;;;;;;5.45;1.50;;;;;;;;;;5078298;28;20566;-58
2024/02/22 00:21:08;;;;;;;4.47;1.85;;;;;;;;;;5072283;28;20028;-58
2024/02/22 00:23:34;;;;;;;5.50;2.00;;;;;;;;;;5072927;28;20494;-58
2024/02/22 00:26:00;;;;;;;6.50;1.35;;;;;;;;;;5082662;28;20024;-58
2024/02/22 00:28:26;;;;;;;3.17;1.30;;;;;;;;;;5071935;28;20024;-58
2024/02/22 00:30:52;;;;;;;5.43;1.98;;;;;;;;;;5086901;28;20035;-58
2024/02/22 00:33:18;;;;;;;3.78;1.92;;;;;;;;;;5077532;28;20457;-58
2024/02/22 00:35:44;;;;;;;4.60;1.80;;;;;;;;;;5073915;28;20028;-58
2024/02/22 00:38:10;;;;;;;7.18;1.75;;;;;;;;;;5076791;28;20385;-58
2024/02/22 00:40:36;;;;;;;7.60;2.13;;;;;;;;;;5079054;28;20032;-58
2024/02/22 00:43:02;;;;;;;5.30;1.92;;;;;;;;;;5085727;28;20047;-58
2024/02/22 00:45:29;;;;;;;7.40;1.65;;;;;;;;;;5075517;28;20032;-58
2024/02/22 00:47:58;;;;;;;10.48;1.83;;;;;;;;;;5071798;28;20028;-56
2024/02/22 00:50:24;;;;;;;6.75;1.75;;;;;;;;;;5075742;28;20024;-56
2024/02/22 00:52:50;;;;;;;5.60;1.55;;;;;;;;;;5073283;28;20496;-57
2024/02/22 00:55:17;;;;;;;6.57;1.42;;;;;;;;;;5080065;28;20388;-56
2024/02/22 00:57:43;;;;;;;3.65;1.55;;;;;;;;;;5086497;28;20029;-58
2024/02/22 01:00:11;;;;;;;5.10;1.55;;;;;;;;;;5078284;28;20365;-59
2024/02/22 01:02:37;;;;;;;2.50;1.55;;;;;;;;;;5078636;28;20038;-58
2024/02/22 01:05:04;;;;;;;4.18;1.27;;;;;;;;;;5077013;28;20036;-58
2024/02/22 01:07:31;;;;;;;3.70;1.45;;;;;;;;;;5074765;28;20439;-58
2024/02/22 01:09:57;;;;;;;5.43;1.65;;;;;;;;;;5078676;28;20498;-58
2024/02/22 01:12:23;;;;;;;3.58;1.92;;;;;;;;;;5081054;28;20024;-58
2024/02/22 01:14:49;;;;;;;8.50;1.63;;;;;;;;;;5089944;28;20101;-58
2024/02/22 01:17:16;;;;;;;7.97;1.70;;;;;;;;;;5083564;28;20052;-59
2024/02/22 01:19:42;;;;;;;3.05;1.50;;;;;;;;;;5079988;28;20496;-58
2024/02/22 01:22:10;;;;;;;5.65;1.60;;;;;;;;;;5076661;28;20039;-58
2024/02/22 01:24:36;;;;;;;5.72;1.90;;;;;;;;;;5069681;28;20028;-57
2024/02/22 01:27:02;;;;;;;8.43;1.65;;;;;;;;;;5086090;28;20036;-58
2024/02/22 01:29:28;;;;;;;3.95;1.75;;;;;;;;;;5081687;28;20051;-58
2024/02/22 01:31:54;;;;;;;10.77;1.67;;;;;;;;;;5076379;28;20051;-58
2024/02/22 01:34:20;;;;;;;6.43;1.70;;;;;;;;;;5075072;28;20029;-58
2024/02/22 01:36:47;;;;;;;5.00;1.58;;;;;;;;;;5079286;28;20024;-58
2024/02/22 01:39:14;;;;;;;2.33;1.40;;;;;;;;;;5085329;28;20507;-58
2024/02/22 01:41:40;;;;;;;4.55;1.50;;;;;;;;;;5073069;28;20546;-58
2024/02/22 01:44:06;;;;;;;5.35;1.85;;;;;;;;;;5085881;28;20031;-59
2024/02/22 01:46:32;;;;;;;4.50;1.38;;;;;;;;;;5082900;28;20028;-58
2024/02/22 01:48:59;;;;;;;5.30;1.48;;;;;;;;;;5084394;28;20553;-58
2024/02/22 01:51:25;;;;;;;7.78;1.70;;;;;;;;;;5090323;28;20439;-58
2024/02/22 01:53:51;;;;;;;4.53;1.40;;;;;;;;;;5077689;28;20024;-58
2024/02/22 01:56:19;;;;;;;5.38;1.45;;;;;;;;;;5072102;28;20043;-58
2024/02/22 01:58:48;;;;;;;3.00;1.40;;;;;;;;;;5077433;28;20024;-58
2024/02/22 02:01:13;;;;;;;4.63;1.40;;;;;;;;;;5082784;28;20024;-59
2024/02/22 02:03:40;;;;;;;4.18;1.35;;;;;;;;;;5078178;28;20043;-59
2024/02/22 02:06:06;;;;;;;8.35;1.50;;;;;;;;;;5064791;28;20028;-59
2024/02/22 02:08:32;;;;;;;3.60;1.10;;;;;;;;;;5073276;28;20028;-58
2024/02/22 02:10:58;;;;;;;5.75;1.65;;;;;;;;;;5089944;28;20032;-58
2024/02/22 02:13:24;;;;;;;1.85;1.23;;;;;;;;;;5077599;28;20033;-57
2024/02/22 02:15:50;;;;;;;8.48;1.55;;;;;;;;;;5082887;28;20494;-59
2024/02/22 02:18:16;;;;;;;2.75;0.90;;;;;;;;;;5078426;28;20048;-59
2024/02/22 02:20:51;;;;;;;5.38;1.30;;;;;;;;;;5080814;28;20025;-59
2024/02/22 02:23:22;;;;;;;3.90;1.02;;;;;;;;;;5078758;28;20039;-58
2024/02/22 02:25:48;;;;;;;4.72;1.55;;;;;;;;;;5077833;28;20036;-58
2024/02/22 02:28:14;;;;;;;4.53;1.27;;;;;;;;;;5075515;28;20396;-59
2024/02/22 02:30:40;;;;;;;2.05;1.10;;;;;;;;;;5085245;28;20028;-59
2024/02/22 02:33:06;;;;;;;3.28;1.30;;;;;;;;;;5074478;28;20020;-60
2024/02/22 02:35:37;;;;;;;4.78;1.13;;;;;;;;;;5083904;28;20036;-58
2024/02/22 02:38:03;;;;;;;3.33;0.98;;;;;;;;;;5074610;28;20044;-58
2024/02/22 02:40:29;;;;;;;3.85;1.25;;;;;;;;;;5083497;28;20032;-58
2024/02/22 02:42:55;;;;;;;2.75;1.20;;;;;;;;;;5077663;28;20389;-59
2024/02/22 02:45:21;;;;;;;2.10;1.02;;;;;;;;;;5081322;28;20039;-57
2024/02/22 02:47:47;;;;;;;5.03;0.85;;;;;;;;;;5072774;28;20028;-59
2024/02/22 02:50:13;;;;;;;3.67;1.00;;;;;;;;;;5079809;28;20070;-59
2024/02/22 02:52:39;;;;;;;1.83;0.80;;;;;;;;;;5089661;28;20099;-56
2024/02/22 02:55:05;;;;;;;2.10;0.82;;;;;;;;;;5085205;28;20044;-58
2024/02/22 02:57:31;;;;;;;2.38;0.93;;;;;;;;;;5091505;28;20086;-59
2024/02/22 02:59:57;;;;;;;3.25;0.73;;;;;;;;;;5079093;28;20392;-58
2024/02/22 03:02:23;;;;;;;1.30;0.75;;;;;;;;;;5077792;28;20027;-58
2024/02/22 03:04:48;;;;;;;3.92;1.20;;;;;;;;;;5081063;28;20032;-58
2024/02/22 03:07:14;;;;;;;1.92;0.80;;;;;;;;;;5070639;28;20036;-59
2024/02/22 03:09:40;;;;;;;1.90;0.90;;;;;;;;;;5083350;28;20031;-58
2024/02/22 03:12:07;;;;;;;0.90;0.70;;;;;;;;;;5085610;28;20099;-56
2024/02/22 03:14:33;;;;;;;2.22;0.95;;;;;;;;;;5084286;28;20028;-59
2024/02/22 03:16:59;;;;;;;1.98;0.77;;;;;;;;;;5082503;28;20048;-56
2024/02/22 03:19:25;;;;;;;2.25;0.90;;;;;;;;;;5103431;28;20036;-56
2024/02/22 03:21:51;;;;;;;2.28;0.98;;;;;;;;;;5086005;28;20035;-57
2024/02/22 03:24:17;;;;;;;1.92;0.93;;;;;;;;;;5096442;28;20020;-57
2024/02/22 03:26:46;;;;;;;2.75;1.00;;;;;;;;;;5094991;28;20411;-57
2024/02/22 03:29:12;;;;;;;1.92;0.93;;;;;;;;;;5095027;28;20097;-56
2024/02/22 03:31:38;;;;;;;3.03;0.90;;;;;;;;;;5094918;28;20016;-57
2024/02/22 03:34:04;;;;;;;1.92;1.20;;;;;;;;;;5109380;28;20024;-56
2024/02/22 03:36:30;;;;;;;4.10;1.08;;;;;;;;;;5112315;28;20022;-57
2024/02/22 03:38:56;;;;;;;2.40;0.93;;;;;;;;;;5093352;28;20017;-56
2024/02/22 03:41:25;;;;;;;2.20;1.10;;;;;;;;;;5100592;28;20028;-56
2024/02/22 03:43:52;;;;;;;1.83;0.95;;;;;;;;;;5094421;28;20032;-56
2024/02/22 03:46:18;;;;;;;2.08;0.90;;;;;;;;;;5094590;28;20036;-55
2024/02/22 03:48:44;;;;;;;2.30;1.05;;;;;;;;;;5103906;28;20036;-58
2024/02/22 03:51:10;;;;;;;1.98;0.98;;;;;;;;;;5099928;28;20483;-56
2024/02/22 03:53:36;;;;;;;1.40;0.80;;;;;;;;;;5109677;28;20035;-56
2024/02/22 03:56:03;;;;;;;4.22;1.05;;;;;;;;;;5099642;28;20024;-57
2024/02/22 03:58:29;;;;;;;4.72;1.00;;;;;;;;;;5094716;28;20032;-56
2024/02/22 04:00:55;;;;;;;3.08;0.80;;;;;;;;;;5096816;28;20035;-56
2024/02/22 04:03:21;;;;;;;2.53;1.08;;;;;;;;;;5099220;28;20028;-56
2024/02/22 04:05:47;;;;;;;3.65;1.20;;;;;;;;;;5095336;28;20034;-56
2024/02/22 04:08:12;;;;;;;1.63;0.82;;;;;;;;;;5105040;28;20447;-57
2024/02/22 04:10:38;;;;;;;3.42;1.27;;;;;;;;;;5100548;28;20401;-56
2024/02/22 04:13:04;;;;;;;2.45;1.00;;;;;;;;;;5093855;28;20434;-56
2024/02/22 04:15:30;;;;;;;1.92;1.10;;;;;;;;;;5100919;28;20384;-57
2024/02/22 04:17:57;;;;;;;2.20;1.00;;;;;;;;;;5078437;28;20052;-56
2024/02/22 04:20:23;;;;;;;4.22;1.13;;;;;;;;;;5073168;28;20123;-56
2024/02/22 04:22:49;;;;;;;1.90;1.08;;;;;;;;;;5084968;28;20028;-57
2024/02/22 04:25:15;;;;;;;2.45;0.98;;;;;;;;;;5074042;28;20111;-56
2024/02/22 04:27:41;;;;;;;1.45;0.88;;;;;;;;;;5078091;28;20032;-57
2024/02/22 04:30:07;;;;;;;2.05;1.42;;;;;;;;;;5082784;28;20047;-57
2024/02/22 04:32:33;;;;;;;1.30;1.00;;;;;;;;;;5080980;28;20085;-57
2024/02/22 04:35:00;;;;;;;1.42;0.90;;;;;;;;;;5073578;28;20512;-57
2024/02/22 04:37:26;;;;;;;3.45;1.40;;;;;;;;;;5081880;28;20506;-56
2024/02/22 04:39:52;;;;;;;1.48;1.08;;;;;;;;;;5085005;28;20032;-56
2024/02/22 04:42:18;;;;;;;2.97;1.23;;;;;;;;;;5075559;28;20507;-57
2024/02/22 04:44:46;;;;;;;1.45;0.90;;;;;;;;;;5060786;28;20111;-56
2024/02/22 04:47:12;;;;;;;1.83;0.93;;;;;;;;;;5080351;28;20033;-57
2024/02/22 04:49:38;;;;;;;3.22;1.00;;;;;;;;;;5084990;28;20027;-56
2024/02/22 04:52:05;;;;;;;1.33;0.80;;;;;;;;;;5084301;28;20480;-57
2024/02/22 04:54:32;;;;;;;2.50;1.00;;;;;;;;;;5080299;28;20549;-57
2024/02/22 04:56:58;;;;;;;2.33;1.17;;;;;;;;;;5064909;28;20031;-56
2024/02/22 04:59:24;;;;;;;2.03;1.10;;;;;;;;;;5074689;28;20028;-57
2024/02/22 05:01:50;;;;;;;1.20;0.75;;;;;;;;;;5075745;28;20024;-57
2024/02/22 05:04:16;;;;;;;2.42;0.80;;;;;;;;;;5062723;28;20031;-56
2024/02/22 05:06:46;;;;;;;1.75;1.10;;;;;;;;;;5080411;28;20030;-56
2024/02/22 05:09:13;;;;;;;3.38;0.77;;;;;;;;;;5070780;28;22783;-56
2024/02/22 05:11:49;;;;;;;3.35;1.00;;;;;;;;;;5082093;28;20032;-58
2024/02/22 05:14:15;;;;;;;3.88;1.13;;;;;;;;;;5072270;28;20078;-57
2024/02/22 05:16:41;;;;;;;1.25;0.75;;;;;;;;;;5078921;28;20040;-58
2024/02/22 05:19:07;;;;;;;2.10;1.00;;;;;;;;;;5078868;28;20119;-56
2024/02/22 05:21:33;;;;;;;1.15;0.90;;;;;;;;;;5073820;28;20507;-56
2024/02/22 05:24:00;;;;;;;2.55;1.00;;;;;;;;;;5068641;28;20032;-56
2024/02/22 05:26:29;;;;;;;1.63;0.82;;;;;;;;;;5075623;28;20487;-56
2024/02/22 05:28:55;;;;;;;1.40;0.80;;;;;;;;;;5073614;28;20575;-57
2024/02/22 05:31:25;;;;;;;1.83;0.80;;;;;;;;;;5077068;28;20035;-56
2024/02/22 05:33:51;;;;;;;2.60;1.08;;;;;;;;;;5051096;28;20024;-57
2024/02/22 05:36:21;;;;;;;2.85;1.00;;;;;;;;;;5087316;28;20036;-56
2024/02/22 05:38:47;;;;;;;2.20;1.13;;;;;;;;;;5081218;28;20103;-59
2024/02/22 05:41:13;;;;;;;2.10;0.90;;;;;;;;;;5066594;28;20361;-59
2024/02/22 05:43:39;;;;;;;1.13;0.80;;;;;;;;;;5073818;28;20028;-59
2024/02/22 05:46:06;;;;;;;2.45;1.02;;;;;;;;;;5075224;28;20503;-59
2024/02/22 05:48:32;;;;;;;2.05;1.10;;;;;;;;;;5078505;28;20751;-59
2024/02/22 05:50:58;;;;;;;1.23;0.88;;;;;;;;;;5080078;28;20027;-59
2024/02/22 05:53:23;;;;;;;1.80;0.95;;;;;;;;;;5080387;28;20478;-59
2024/02/22 05:55:50;;;;;;;2.67;1.20;;;;;;;;;;5082781;28;20027;-59
2024/02/22 05:58:17;;;;;;;2.17;1.23;;;;;;;;;;5083948;28;20042;-59
2024/02/22 06:00:43;;;;;;;1.85;0.90;;;;;;;;;;5078575;28;20028;-59
2024/02/22 06:03:09;;;;;;;1.25;0.82;;;;;;;;;;5070648;28;20028;-59
2024/02/22 06:05:36;;;;;;;1.10;0.85;;;;;;;;;;5067833;28;20040;-59
2024/02/22 06:08:03;;;;;;;2.53;1.17;;;;;;;;;;5074522;28;20025;-59
2024/02/22 06:10:29;;;;;;;3.40;1.13;;;;;;;;;;5074247;28;20056;-59
2024/02/22 06:12:55;;;;;;;1.27;0.90;;;;;;;;;;5073719;28;20468;-59
2024/02/22 06:15:21;;;;;;;1.27;1.05;;;;;;;;;;5073474;28;20444;-59
2024/02/22 06:17:47;;;;;;;2.33;0.95;;;;;;;;;;5086821;28;20528;-59
2024/02/22 06:20:14;;;;;;;3.80;1.17;;;;;;;;;;5083042;28;20396;-58
2024/02/22 06:22:40;;;;;;;2.70;1.27;;;;;;;;;;5084330;28;20040;-59
2024/02/22 06:25:06;;;;;;;5.63;1.05;;;;;;;;;;5091514;28;20044;-59
2024/02/22 06:27:33;;;;;;;5.13;1.20;;;;;;;;;;5083777;28;20032;-59
2024/02/22 06:29:59;;;;;;;1.42;0.90;;;;;;;;;;5095277;28;20024;-59
2024/02/22 06:32:26;;;;;;;1.73;0.75;;;;;;;;;;5087038;28;20024;-58
2024/02/22 06:34:52;;;;;;;2.65;0.95;;;;;;;;;;5088245;28;20021;-59
2024/02/22 06:37:18;;;;;;;2.05;1.02;;;;;;;;;;5087806;28;20028;-59
2024/02/22 06:39:44;;;;;;;2.47;1.00;;;;;;;;;;5095227;28;20024;-59
2024/02/22 06:42:10;;;;;;;1.90;1.00;;;;;;;;;;5086988;28;20487;-59
2024/02/22 06:44:36;;;;;;;2.10;1.02;;;;;;;;;;5090562;28;20025;-59
2024/02/22 06:47:02;;;;;;;4.43;1.05;;;;;;;;;;5091095;28;20016;-57
2024/02/22 06:49:31;;;;;;;1.42;0.90;;;;;;;;;;5084815;28;20107;-58
2024/02/22 06:51:57;;;;;;;1.88;0.98;;;;;;;;;;5093017;28;20028;-57
2024/02/22 06:54:23;;;;;;;3.95;1.20;;;;;;;;;;5092476;28;20028;-57
2024/02/22 06:56:49;;;;;;;2.20;0.98;;;;;;;;;;5083742;28;20464;-57
2024/02/22 06:59:16;;;;;;;2.08;1.10;;;;;;;;;;5083614;28;20394;-59
2024/02/22 07:01:42;;;;;;;3.88;1.40;;;;;;;;;;5085323;28;20101;-57
2024/02/22 07:04:09;;;;;;;2.65;1.02;;;;;;;;;;5090301;28;20028;-58
2024/02/22 07:06:36;;;;;;;1.77;1.00;;;;;;;;;;5088030;28;20024;-58
2024/02/22 07:09:02;;;;;;;2.92;1.23;;;;;;;;;;5087664;28;20032;-57
2024/02/22 07:11:28;;;;;;;3.50;1.10;;;;;;;;;;5097907;28;20049;-57
2024/02/22 07:13:55;;;;;;;2.15;1.17;;;;;;;;;;5090702;28;20032;-56
2024/02/22 07:16:21;;;;;;;3.80;1.20;;;;;;;;;;5085891;28;20028;-57
2024/02/22 07:18:47;;;;;;;6.40;1.50;;;;;;;;;;5095830;28;20031;-57
2024/02/22 07:21:13;;;;;;;2.45;1.00;;;;;;;;;;5093000;28;20431;-57
2024/02/22 07:23:39;;;;;;;1.80;1.20;;;;;;;;;;5098804;28;20062;-56
2024/02/22 07:26:09;;;;;;;3.90;1.40;;;;;;;;;;5092916;28;20433;-57
2024/02/22 07:28:36;;;;;;;2.33;1.20;;;;;;;;;;5089740;28;20685;-57
2024/02/22 07:31:02;;;;;;;1.73;1.30;;;;;;;;;;5089810;28;20502;-57
2024/02/22 07:33:29;;;;;;;3.38;1.10;;;;;;;;;;5094731;28;20032;-58
2024/02/22 07:35:55;;;;;;;1.25;0.90;;;;;;;;;;5092568;28;20491;-57
2024/02/22 07:38:22;;;;;;;1.35;0.93;;;;;;;;;;5092782;28;20039;-56
2024/02/22 07:40:48;;;;;;;3.00;1.17;;;;;;;;;;5091338;28;20048;-57
2024/02/22 07:43:14;;;;;;;1.73;1.42;;;;;;;;;;5089464;28;20391;-57
2024/02/22 07:45:42;;;;;;;1.50;1.00;;;;;;;;;;5092606;28;20092;-57
2024/02/22 07:48:09;;;;;;;2.20;1.15;;;;;;;;;;5091570;28;20031;-57
2024/02/22 07:50:35;;;;;;;2.35;1.30;;;;;;;;;;5092865;28;20055;-57
2024/02/22 07:53:01;;;;;;;4.35;1.38;;;;;;;;;;5092130;28;20028;-58
2024/02/22 07:55:27;;;;;;;3.42;1.55;;;;;;;;;;5092519;28;20020;-57
2024/02/22 07:57:53;;;;;;;2.08;1.30;;;;;;;;;;5092572;28;20457;-59
2024/02/22 08:00:19;;;;;;;2.75;1.25;;;;;;;;;;5090855;28;20401;-59
2024/02/22 08:02:45;;;;;;;1.75;1.25;;;;;;;;;;5090833;28;20036;-59
2024/02/22 08:05:11;;;;;;;3.60;1.40;;;;;;;;;;5092166;28;20038;-59
2024/02/22 08:07:38;;;;;;;1.60;1.05;;;;;;;;;;5092452;28;20357;-59
2024/02/22 08:10:05;;;;;;;1.88;1.40;;;;;;;;;;5099156;28;20030;-58
2024/02/22 08:12:32;;;;;;;1.40;1.17;;;;;;;;;;5081729;28;20020;-59
2024/02/22 08:14:57;;;;;;;3.10;1.17;;;;;;;;;;5091902;28;20023;-59
2024/02/22 08:17:24;;;;;;;4.53;1.30;;;;;;;;;;5056228;28;997526;-59
2024/02/22 08:19:49;;;;;;;2.55;1.42;;;;;;;;;;5100527;28;20073;-59
2024/02/22 08:22:16;;;;;;;5.32;1.50;;;;;;;;;;5092394;28;20399;-59
2024/02/22 08:24:42;;;;;;;3.13;1.42;;;;;;;;;;5093142;28;20458;-59
2024/02/22 08:27:10;;;;;;;2.50;1.65;;;;;;;;;;5092785;28;20103;-59
2024/02/22 08:29:36;;;;;;;3.17;1.75;;;;;;;;;;5091504;28;20115;-59
2024/02/22 08:32:04;;;;;;;2.30;1.67;;;;;;;;;;5092178;28;20086;-59
2024/02/22 08:34:30;;;;;;;2.42;1.80;;;;;;;;;;5096121;28;20024;-59
2024/02/22 08:36:56;;;;;;;3.00;1.42;;;;;;;;;;5090814;28;20372;-59
2024/02/22 08:39:22;;;;;;;3.03;2.10;;;;;;;;;;5090672;28;20605;-59
2024/02/22 08:41:48;;;;;;;2.35;1.90;;;;;;;;;;5092435;28;20055;-59
2024/02/22 08:44:14;;;;;;;2.83;1.83;;;;;;;;;;5089812;28;20153;-59
2024/02/22 08:46:40;;;;;;;1.90;1.65;;;;;;;;;;5091459;28;20107;-59
2024/02/22 08:49:06;;;;;;;2.58;1.88;;;;;;;;;;5092488;28;20020;-59
2024/02/22 08:51:32;;;;;;;2.63;1.80;;;;;;;;;;5092583;28;20373;-59
2024/02/22 08:53:59;;;;;;;2.45;1.65;;;;;;;;;;5092058;28;20031;-59
2024/02/22 08:56:26;;;;;;;4.70;2.00;;;;;;;;;;5091770;28;20032;-59
2024/02/22 08:58:51;;;;;;;2.30;1.67;;;;;;;;;;5100958;28;20047;-59
2024/02/22 09:01:21;;;;;;;3.22;1.85;;;;;;;;;;5100400;28;20032;-58
2024/02/22 09:03:46;;;;;;;3.47;1.73;;;;;;;;;;5080985;28;20031;-59
2024/02/22 09:06:12;;;;;;;2.65;1.92;;;;;;;;;;5092170;28;20055;-59
2024/02/22 09:08:43;;;;;;;3.40;2.05;;;;;;;;;;5092100;28;20021;-59
2024/02/22 09:11:09;;;;;;;3.67;1.85;;;;;;;;;;5091925;28;20146;-59
2024/02/22 09:13:35;;;;;;;2.85;1.52;;;;;;;;;;5089032;28;20253;-59
2024/02/22 09:16:01;;;;;;;2.53;1.52;;;;;;;;;;5091944;28;20031;-59
2024/02/22 09:18:27;;;;;;;3.53;1.65;;;;;;;;;;5067870;28;20572;-59
2024/02/22 09:20:53;;;;;;;2.05;1.50;;;;;;;;;;5055356;28;20033;-60
2024/02/22 09:23:19;;;;;;;3.53;1.60;;;;;;;;;;5069716;28;20550;-58
2024/02/22 09:25:46;;;;;;;2.63;2.00;;;;;;;;;;5069244;28;20044;-59
2024/02/22 09:28:13;;;;;;;2.30;1.67;;;;;;;;;;5071383;28;20110;-58
2024/02/22 09:30:38;;;;;;;8.20;2.30;;;;;;;;;;5071763;28;20472;-57
2024/02/22 09:33:05;;;;;;;2.10;1.50;;;;;;;;;;5071141;28;20020;-59
2024/02/22 09:35:31;;;;;;;2.80;1.63;;;;;;;;;;5071086;28;20146;-59
2024/02/22 09:37:58;;;;;;;2.75;1.48;;;;;;;;;;5071372;28;20484;-59
2024/02/22 09:40:25;;;;;;;2.15;1.60;;;;;;;;;;5069631;28;20072;-60
2024/02/22 09:42:51;;;;;;;1.85;1.45;;;;;;;;;;5068248;28;20032;-58
2024/02/22 09:45:17;;;;;;;2.38;1.40;;;;;;;;;;5068782;28;20070;-59
2024/02/22 09:47:46;;;;;;;2.00;1.75;;;;;;;;;;5064107;28;20078;-59
2024/02/22 09:50:13;;;;;;;2.50;1.63;;;;;;;;;;5070563;28;20025;-60
2024/02/22 09:52:39;;;;;;;2.38;1.83;;;;;;;;;;5071293;28;20029;-60
2024/02/22 09:55:05;;;;;;;2.72;1.77;;;;;;;;;;5070940;28;20115;-58
2024/02/22 09:57:32;;;;;;;1.95;1.70;;;;;;;;;;5071066;28;20104;-59
2024/02/22 09:59:58;;;;;;;2.80;1.70;;;;;;;;;;5070795;28;20025;-58
2024/02/22 10:02:24;;;;;;;1.90;1.50;;;;;;;;;;5068347;28;20146;-60
2024/02/22 10:04:58;;;;;;;1.85;1.40;;;;;;;;;;5070696;28;20116;-58
2024/02/22 10:07:24;;;;;;;3.88;1.15;;;;;;;;;;5070935;28;20476;-60
2024/02/22 10:09:51;;;;;;;1.77;1.40;;;;;;;;;;5071003;28;20016;-59
2024/02/22 10:12:23;;;;;;;2.03;1.60;;;;;;;;;;5075875;28;20017;-60
2024/02/22 10:14:49;;;;;;;1.83;1.50;;;;;;;;;;5070932;28;20027;-60
2024/02/22 10:17:25;;;;;;;3.35;1.58;;;;;;;;;;5071058;28;20040;-59
2024/02/22 10:20:04;;;;;;;2.15;1.50;;;;;;;;;;5077064;28;20036;-59
2024/02/22 10:22:31;;;;;;;2.13;1.50;;;;;;;;;;5083618;28;20039;-59
2024/02/22 10:25:07;;;;;;;2.65;1.20;;;;;;;;;;5085379;28;20024;-60
2024/02/22 10:27:33;;;;;;;4.45;1.58;;;;;;;;;;5091112;28;20024;-58
2024/02/22 10:29:59;;;;;;;1.83;1.25;;;;;;;;;;5090868;28;20435;-59
2024/02/22 10:32:25;;;;;;;1.30;1.13;;;;;;;;;;5090577;28;20380;-60
2024/02/22 10:34:51;;;;;;;3.28;1.17;;;;;;;;;;5081857;28;20392;-58
2024/02/22 10:37:18;;;;;;;1.98;1.30;;;;;;;;;;5091066;28;20095;-58
2024/02/22 10:39:45;;;;;;;1.92;1.33;;;;;;;;;;5091064;28;20023;-60
2024/02/22 10:42:14;;;;;;;2.25;1.50;;;;;;;;;;5090690;28;20111;-59
2024/02/22 10:44:44;;;;;;;1.02;0.90;;;;;;;;;;5074992;28;20032;-58
2024/02/22 10:47:11;;;;;;;1.75;1.05;;;;;;;;;;5078729;28;20027;-59
2024/02/22 10:49:38;;;;;;;2.83;1.20;;;;;;;;;;5073702;28;20094;-59
2024/02/22 10:52:05;;;;;;;2.08;1.00;;;;;;;;;;5090978;28;20025;-59
2024/02/22 10:54:34;;;;;;;2.30;1.08;;;;;;;;;;5074143;28;20155;-59
2024/02/22 10:57:03;;;;;;;1.08;0.60;;;;;;;;;;5090719;28;20028;-59
2024/02/22 10:59:30;;;;;;;1.65;0.82;;;;;;;;;;5090747;28;20084;-60
2024/02/22 11:01:56;;;;;;;2.80;0.70;;;;;;;;;;5090311;28;20032;-59
2024/02/22 11:04:23;;;;;;;0.82;0.73;;;;;;;;;;5084266;28;20490;-59
2024/02/22 11:06:49;;;;;;;1.35;0.68;;;;;;;;;;5086896;28;20470;-59
2024/02/22 11:09:25;;;;;;;0.70;0.50;;;;;;;;;;5083625;28;20259;-59
2024/02/22 11:11:52;;;;;;;1.25;0.75;;;;;;;;;;5079285;28;20485;-59
2024/02/22 11:14:36;;;;;;;1.52;0.60;;;;;;;;;;5075323;28;20427;-59
2024/02/22 11:17:07;;;;;;;;;;;;;;;;;;5091351;28;20036;-60
2024/02/22 11:19:33;;;;;;;1.38;0.60;;;;;;;;;;5094409;28;19942;-60
2024/02/22 11:21:59;;;;;;;3.85;0.70;;;;;;;;;;5094225;28;20476;-60
2024/02/22 11:24:26;;;;;;;1.08;0.60;;;;;;;;;;5093855;28;20098;-59
2024/02/22 11:26:57;;;;;;;0.68;0.57;;;;;;;;;;5094033;28;20107;-57
2024/02/22 11:29:31;;;;;;;4.72;0.68;;;;;;;;;;5094218;28;20036;-57
2024/02/22 11:32:00;;;;;;;0.60;0.60;;;;;;;;;;5095595;28;20035;-58
2024/02/22 11:34:26;;;;;;;1.38;0.90;;;;;;;;;;5093625;28;20110;-57
2024/02/22 11:36:55;;;;;;;0.90;0.70;;;;;;;;;;5093483;28;20032;-57
2024/02/22 11:39:21;;;;;;;1.90;0.60;;;;;;;;;;5093589;28;20020;-57
2024/02/22 11:41:50;;;;;;;1.05;0.70;;;;;;;;;;5093841;28;20024;-58
2024/02/22 11:44:16;;;;;;;0.82;0.60;;;;;;;;;;5093626;28;20027;-57
2024/02/22 11:46:43;;;;;;;1.23;0.55;;;;;;;;;;5091463;28;20028;-57
2024/02/22 11:49:09;;;;;;;0.47;0.47;;;;;;;;;;5093683;28;20052;-58
2024/02/22 11:51:36;;;;;;;1.13;0.70;;;;;;;;;;5100401;28;20445;-58
2024/02/22 11:54:03;;;;;;;2.00;0.60;;;;;;;;;;5099844;28;20020;-58
2024/02/22 11:56:29;;;;;;;0.55;0.50;;;;;;;;;;5092180;28;20020;-57
2024/02/22 11:58:56;;;;;;;1.40;0.70;;;;;;;;;;5093548;28;20506;-57
2024/02/22 12:01:23;;;;;;;0.50;0.50;;;;;;;;;;5079959;28;20103;-57
2024/02/22 12:03:51;;;;;;;0.65;0.60;;;;;;;;;;5091086;28;20039;-58
2024/02/22 12:06:17;;;;;;;3.22;0.60;;;;;;;;;;5093536;28;20035;-58
2024/02/22 12:08:45;;;;;;;0.80;0.60;;;;;;;;;;5100032;28;20084;-59
2024/02/22 12:11:13;;;;;;;0.80;0.60;;;;;;;;;;5092584;28;20434;-59
2024/02/22 12:13:39;;;;;;;1.65;1.10;;;;;;;;;;5092597;28;20028;-60
2024/02/22 12:16:09;;;;;;;0.82;0.50;;;;;;;;;;5092136;28;20097;-57
2024/02/22 12:18:35;;;;;;;0.88;0.50;;;;;;;;;;5093015;28;20039;-57
2024/02/22 12:21:04;;;;;;;1.58;0.77;;;;;;;;;;5091510;28;20032;-58
2024/02/22 12:23:30;;;;;;;1.00;0.50;;;;;;;;;;5088285;28;20122;-57
2024/02/22 12:26:06;;;;;;;0.90;0.60;;;;;;;;;;5093075;28;20043;-58
2024/02/22 12:28:32;;;;;;;0.77;0.50;;;;;;;;;;5092801;28;20032;-57
2024/02/22 12:30:58;;;;;;;1.50;0.60;;;;;;;;;;5092952;28;20028;-57
2024/02/22 12:33:24;;;;;;;0.95;0.65;;;;;;;;;;5092202;28;20023;-57
2024/02/22 12:35:50;;;;;;;0.95;0.50;;;;;;;;;;5092792;28;20077;-57
2024/02/22 12:38:16;;;;;;;0.82;0.55;;;;;;;;;;5092916;28;20128;-58
2024/02/22 12:40:44;;;;;;;1.50;0.60;;;;;;;;;;5090532;28;20428;-59
2024/02/22 12:43:13;;;;;;;1.88;0.60;;;;;;;;;;5092295;28;20089;-60
2024/02/22 12:45:39;;;;;;;0.73;0.50;;;;;;;;;;5092385;28;20028;-60
2024/02/22 12:48:06;;;;;;;0.30;0.30;;;;;;;;;;5089913;28;20528;-59
2024/02/22 12:50:33;;;;;;;2.72;0.60;;;;;;;;;;5092605;28;20525;-59
2024/02/22 12:53:00;;;;;;;0.50;0.50;;;;;;;;;;5100632;28;20486;-60
2024/02/22 12:55:25;;;;;;;0.93;0.50;;;;;;;;;;5095099;28;20032;-58
2024/02/22 12:57:51;;;;;;;2.78;0.60;;;;;;;;;;5092269;28;20514;-60
2024/02/22 13:00:18;;;;;;;0.98;0.60;;;;;;;;;;5092322;28;20456;-60
2024/02/22 13:02:43;;;;;;;0.70;0.32;;;;;;;;;;5089263;28;20166;-60
2024/02/22 13:05:10;;;;;;;2.00;0.70;;;;;;;;;;5092211;28;20128;-59
2024/02/22 13:07:37;;;;;;;0.63;0.47;;;;;;;;;;5093914;28;20076;-59
2024/02/22 13:10:05;;;;;;;1.25;0.50;;;;;;;;;;5100941;28;20479;-60
2024/02/22 13:12:34;;;;;;;1.27;0.60;;;;;;;;;;5091586;28;20035;-59
2024/02/22 13:15:00;;;;;;;0.63;0.50;;;;;;;;;;5095209;28;20355;-59
2024/02/22 13:17:26;;;;;;;0.75;0.50;;;;;;;;;;5092503;28;20040;-60
2024/02/22 13:19:52;;;;;;;0.73;0.43;;;;;;;;;;5090090;28;20472;-60
2024/02/22 13:22:18;;;;;;;1.95;0.50;;;;;;;;;;5091351;28;20400;-60
2024/02/22 13:24:44;;;;;;;0.68;0.50;;;;;;;;;;5091918;28;20024;-60
2024/02/22 13:27:14;;;;;;;0.75;0.50;;;;;;;;;;5092817;28;20107;-60
2024/02/22 13:29:40;;;;;;;1.00;0.35;;;;;;;;;;5091625;28;20074;-59
2024/02/22 13:32:07;;;;;;;0.20;0.20;;;;;;;;;;5089535;28;20529;-60
2024/02/22 13:34:33;;;;;;;0.63;0.50;;;;;;;;;;5091579;28;20725;-60
2024/02/22 13:36:59;;;;;;;0.82;0.40;;;;;;;;;;5091564;28;20020;-60
2024/02/22 13:39:25;;;;;;;0.63;0.40;;;;;;;;;;5084779;28;20024;-60
2024/02/22 13:41:52;;;;;;;0.60;0.40;;;;;;;;;;5090505;28;20038;-60
2024/02/22 13:44:19;;;;;;;1.08;0.40;;;;;;;;;;5089427;28;20027;-60
2024/02/22 13:46:48;;;;;;;0.43;0.30;;;;;;;;;;5089748;28;20058;-60
2024/02/22 13:49:17;;;;;;;0.65;0.38;;;;;;;;;;5087641;28;20070;-59
2024/02/22 13:51:46;;;;;;;0.80;0.30;;;;;;;;;;5090960;28;20028;-60
2024/02/22 13:54:12;;;;;;;0.50;0.35;;;;;;;;;;5098772;28;20105;-60
2024/02/22 13:56:38;;;;;;;0.88;0.47;;;;;;;;;;5100265;28;20484;-59
2024/02/22 13:59:04;;;;;;;0.80;0.65;;;;;;;;;;5089515;28;20418;-60
2024/02/22 14:01:30;;;;;;;0.50;0.40;;;;;;;;;;5087780;28;20016;-59
2024/02/22 14:03:56;;;;;;;0.43;0.30;;;;;;;;;;5091599;28;20043;-60
2024/02/22 14:06:22;;;;;;;1.77;0.50;;;;;;;;;;5090329;28;20036;-60
2024/02/22 14:08:48;;;;;;;1.20;0.40;;;;;;;;;;5104548;28;20040;-59
2024/02/22 14:11:14;;;;;;;0.68;0.40;;;;;;;;;;5100107;28;20020;-61
2024/02/22 14:13:40;;;;;;;1.50;0.43;;;;;;;;;;5095279;28;20024;-60
2024/02/22 14:16:06;;;;;;;0.50;0.30;;;;;;;;;;5091026;28;20036;-60
2024/02/22 14:18:35;;;;;;;0.55;0.30;;;;;;;;;;5090893;28;20048;-59
2024/02/22 14:21:01;;;;;;;0.30;0.28;;;;;;;;;;5090854;28;20106;-59
2024/02/22 14:23:27;;;;;;;1.45;0.40;;;;;;;;;;5088017;28;20044;-60
2024/02/22 14:25:52;;;;;;;0.15;0.13;;;;;;;;;;5097014;28;21869;-60
2024/02/22 14:28:18;;;;;;;0.20;0.10;;;;;;;;;;5099649;28;20361;-60
2024/02/22 14:30:44;;;;;;;0.55;0.22;;;;;;;;;;5088674;28;20078;-60
2024/02/22 14:33:10;;;;;;;0.38;0.20;;;;;;;;;;5090255;28;20031;-60
2024/02/22 14:35:36;;;;;;;0.20;0.10;;;;;;;;;;5088717;28;20024;-60
2024/02/22 14:38:03;;;;;;;0.15;0.10;;;;;;;;;;5096442;28;20040;-61
2024/02/22 14:40:30;;;;;;;0.20;0.20;;;;;;;;;;5095646;28;20382;-61